createdAt,value
2022-12-22T00:02:35.632Z,20.50
2022-12-22T00:05:21.683Z,20.87
2022-12-22T00:08:07.850Z,23.00
2022-12-22T00:10:55.820Z,22.97
2022-12-22T00:13:41.734Z,22.73
2022-12-22T00:16:28.061Z,23.00
2022-12-22T00:19:14.250Z,23.17
2022-12-22T00:22:00.284Z,23.13
2022-12-22T00:24:46.148Z,23.60
2022-12-22T00:27:35.894Z,25.47
2022-12-22T00:30:22.427Z,24.43
2022-12-22T00:33:08.407Z,24.67
2022-12-22T00:35:54.475Z,25.03
2022-12-22T00:38:41.045Z,24.50
2022-12-22T00:41:27.086Z,27.13
2022-12-22T00:44:14.542Z,25.07
2022-12-22T00:47:01.049Z,24.67
2022-12-22T00:49:47.699Z,24.83
2022-12-22T00:52:35.208Z,25.03
2022-12-22T00:55:20.886Z,23.33
2022-12-22T00:58:06.739Z,24.13
2022-12-22T01:00:54.248Z,25.30
2022-12-22T01:03:40.355Z,25.90
2022-12-22T01:06:30.086Z,26.10
2022-12-22T01:09:16.049Z,24.40
2022-12-22T01:12:02.163Z,24.10
2022-12-22T01:14:48.230Z,24.13
2022-12-22T01:17:35.540Z,23.30
2022-12-22T01:20:21.338Z,23.53
2022-12-22T01:23:07.484Z,24.47
2022-12-22T01:25:53.600Z,25.50
2022-12-22T01:28:39.577Z,26.70
2022-12-22T01:31:32.890Z,23.17
2022-12-22T01:34:20.289Z,24.20
2022-12-22T01:37:06.190Z,22.70
2022-12-22T01:39:52.268Z,24.63
2022-12-22T01:42:38.342Z,24.47
2022-12-22T01:45:35.556Z,24.00
2022-12-22T01:48:21.656Z,26.33
2022-12-22T01:51:08.841Z,25.53
2022-12-22T01:53:54.724Z,24.37
2022-12-22T01:56:40.667Z,23.53
2022-12-22T01:59:26.526Z,25.10
2022-12-22T02:02:12.823Z,23.17
2022-12-22T02:05:01.168Z,24.10
2022-12-22T02:07:55.588Z,24.53
2022-12-22T02:10:57.273Z,24.43
2022-12-22T02:13:47.867Z,23.40
2022-12-22T02:16:36.182Z,25.07
2022-12-22T02:19:25.962Z,22.73
2022-12-22T02:22:16.556Z,23.97
2022-12-22T02:25:06.770Z,23.23
2022-12-22T02:27:54.896Z,24.00
2022-12-22T02:30:40.843Z,24.20
2022-12-22T02:33:27.689Z,25.27
2022-12-22T02:36:20.422Z,22.40
2022-12-22T02:39:09.635Z,24.13
2022-12-22T02:42:01.088Z,25.37
2022-12-22T02:44:54.360Z,25.23
2022-12-22T02:47:43.031Z,26.80
2022-12-22T02:50:34.194Z,26.00
2022-12-22T02:53:20.608Z,25.93
2022-12-22T02:56:06.584Z,26.87
2022-12-22T02:58:53.187Z,29.60
2022-12-22T03:01:40.679Z,26.43
2022-12-22T03:04:26.480Z,27.77
2022-12-22T03:07:12.571Z,26.57
2022-12-22T03:09:58.553Z,26.37
2022-12-22T03:12:44.676Z,24.60
2022-12-22T03:15:30.796Z,26.83
2022-12-22T03:18:22.051Z,24.77
2022-12-22T03:21:08.168Z,25.30
2022-12-22T03:23:54.131Z,24.47
2022-12-22T03:26:22.423Z,25.63
2022-12-22T03:28:50.694Z,24.57
2022-12-22T03:31:18.996Z,24.87
2022-12-22T03:33:48.705Z,27.10
2022-12-22T03:36:17.143Z,23.97
2022-12-22T03:38:46.522Z,23.17
2022-12-22T03:41:34.848Z,24.80
2022-12-22T03:44:20.747Z,22.00
2022-12-22T03:46:49.026Z,24.50
2022-12-22T03:49:19.445Z,21.70
2022-12-22T03:51:48.585Z,22.13
2022-12-22T03:54:17.626Z,20.33
2022-12-22T03:56:46.313Z,20.67
2022-12-22T03:59:15.139Z,21.33
2022-12-22T04:01:44.655Z,21.43
2022-12-22T04:04:13.552Z,20.63
2022-12-22T04:06:43.403Z,20.63
2022-12-22T04:09:11.708Z,20.60
2022-12-22T04:11:57.927Z,22.43
2022-12-22T04:14:33.166Z,19.13
2022-12-22T04:17:02.472Z,18.20
2022-12-22T04:19:30.820Z,21.10
2022-12-22T04:22:00.854Z,19.53
2022-12-22T04:24:29.198Z,18.67
2022-12-22T04:26:57.554Z,17.83
2022-12-22T04:29:25.820Z,18.03
2022-12-22T04:31:54.191Z,18.00
2022-12-22T04:34:22.457Z,19.00
2022-12-22T04:36:53.137Z,18.07
2022-12-22T04:39:22.800Z,19.17
2022-12-22T04:41:51.128Z,18.63
2022-12-22T04:44:19.769Z,18.10
2022-12-22T04:46:48.069Z,16.93
2022-12-22T04:49:16.351Z,17.27
2022-12-22T04:51:44.645Z,16.97
2022-12-22T04:54:12.969Z,16.80
2022-12-22T04:56:42.679Z,16.97
2022-12-22T04:59:10.992Z,16.50
2022-12-22T05:01:39.491Z,16.77
2022-12-22T05:04:08.041Z,18.57
2022-12-22T05:06:36.395Z,17.70
2022-12-22T05:09:04.693Z,18.17
2022-12-22T05:11:32.976Z,17.80
2022-12-22T05:14:07.178Z,17.17
2022-12-22T05:16:36.295Z,17.43
2022-12-22T05:19:04.626Z,17.87
2022-12-22T05:21:32.862Z,19.07
2022-12-22T05:24:01.128Z,20.30
2022-12-22T05:26:29.453Z,31.00
2022-12-22T05:28:57.783Z,18.77
2022-12-22T05:31:27.865Z,33.87
2022-12-22T05:33:56.249Z,47.97
2022-12-22T05:36:24.466Z,19.73
2022-12-22T05:38:52.721Z,32.60
2022-12-22T05:41:20.939Z,22.13
2022-12-22T05:43:49.192Z,73.80
2022-12-22T05:46:17.520Z,33.37
2022-12-22T05:48:47.205Z,25.03
2022-12-22T05:51:15.537Z,30.30
2022-12-22T05:53:43.898Z,59.73
2022-12-22T05:56:12.374Z,63.73
2022-12-22T05:58:40.801Z,86.60
2022-12-22T06:01:09.343Z,48.17
2022-12-22T06:03:37.747Z,25.73
2022-12-22T06:06:07.860Z,41.73
2022-12-22T06:08:36.086Z,22.53
2022-12-22T06:11:04.352Z,33.67
2022-12-22T06:13:33.463Z,27.70
2022-12-22T06:16:01.858Z,48.63
2022-12-22T06:18:30.206Z,30.37
2022-12-22T06:20:58.566Z,30.77
2022-12-22T06:23:28.215Z,38.53
2022-12-22T06:25:57.221Z,47.60
2022-12-22T06:28:25.867Z,37.37
2022-12-22T06:30:54.448Z,29.03
2022-12-22T06:33:22.858Z,34.57
2022-12-22T06:35:58.199Z,36.60
2022-12-22T06:38:29.091Z,42.40
2022-12-22T06:40:57.728Z,38.97
2022-12-22T06:43:25.218Z,48.60
2022-12-22T06:45:53.845Z,32.33
2022-12-22T06:48:22.331Z,37.23
2022-12-22T06:50:50.586Z,32.07
2022-12-22T06:53:18.982Z,35.47
2022-12-22T06:55:48.573Z,32.57
2022-12-22T06:58:16.784Z,43.20
2022-12-22T07:00:48.460Z,29.63
2022-12-22T07:03:17.197Z,36.80
2022-12-22T07:05:45.739Z,20.33
2022-12-22T07:08:14.046Z,32.37
2022-12-22T07:11:00.721Z,26.77
2022-12-22T07:13:31.837Z,44.53
2022-12-22T07:16:01.862Z,21.03
2022-12-22T07:18:31.611Z,26.53
2022-12-22T07:21:00.668Z,24.17
2022-12-22T07:23:29.326Z,24.07
2022-12-22T07:25:57.818Z,26.00
2022-12-22T07:28:26.829Z,24.07
2022-12-22T07:30:57.356Z,25.03
2022-12-22T07:33:25.727Z,25.50
2022-12-22T07:36:02.535Z,23.60
2022-12-22T07:38:31.071Z,21.60
2022-12-22T07:41:04.877Z,21.87
2022-12-22T07:43:33.224Z,22.10
2022-12-22T07:46:02.910Z,22.03
2022-12-22T07:48:48.924Z,20.00
2022-12-22T07:51:17.170Z,28.63
2022-12-22T07:53:45.392Z,25.57
2022-12-22T07:56:13.633Z,24.83
2022-12-22T07:58:41.850Z,23.13
2022-12-22T08:01:11.505Z,25.50
2022-12-22T08:03:39.795Z,24.80
2022-12-22T08:06:08.582Z,21.03
2022-12-22T08:08:36.933Z,25.20
2022-12-22T08:11:05.641Z,25.97
2022-12-22T08:13:33.905Z,23.93
2022-12-22T08:16:05.031Z,31.07
2022-12-22T08:18:35.115Z,30.77
2022-12-22T08:21:03.737Z,29.37
2022-12-22T08:23:32.127Z,34.17
2022-12-22T08:26:02.317Z,32.03
2022-12-22T08:28:40.421Z,29.87
2022-12-22T08:31:09.190Z,27.50
2022-12-22T08:33:39.029Z,34.90
2022-12-22T08:36:08.678Z,28.07
2022-12-22T08:38:37.427Z,25.73
2022-12-22T08:41:05.841Z,25.97
2022-12-22T08:43:34.596Z,26.80
2022-12-22T08:46:02.857Z,23.93
2022-12-22T08:48:31.259Z,25.23
2022-12-22T08:51:00.928Z,23.10
2022-12-22T08:54:03.154Z,22.50
2022-12-22T08:56:17.327Z,22.93
2022-12-22T08:58:45.698Z,22.30
2022-12-22T09:01:17.829Z,20.93
2022-12-22T09:03:50.022Z,23.30
2022-12-22T09:06:23.726Z,20.03
2022-12-22T09:08:55.650Z,22.70
2022-12-22T09:11:24.031Z,20.27
2022-12-22T09:13:53.090Z,21.00
2022-12-22T09:16:22.283Z,21.37
2022-12-22T09:18:50.612Z,18.87
2022-12-22T09:21:20.273Z,18.37
2022-12-22T09:23:48.547Z,16.47
2022-12-22T09:26:17.744Z,15.20
2022-12-22T09:28:50.186Z,16.37
2022-12-22T09:31:19.544Z,14.67
2022-12-22T09:33:47.985Z,15.00
2022-12-22T09:36:17.132Z,16.93
2022-12-22T09:38:46.807Z,15.93
2022-12-22T09:41:17.747Z,16.00
2022-12-22T09:43:46.146Z,17.07
2022-12-22T09:46:17.816Z,15.70
2022-12-22T09:48:46.079Z,16.23
2022-12-22T09:51:14.793Z,15.20
2022-12-22T09:53:44.348Z,17.67
2022-12-22T09:56:17.542Z,16.90
2022-12-22T09:58:47.137Z,14.00
2022-12-22T10:01:26.042Z,14.80
2022-12-22T10:04:00.422Z,16.07
2022-12-22T10:06:34.596Z,14.70
2022-12-22T10:09:14.721Z,13.87
2022-12-22T10:11:55.747Z,13.57
2022-12-22T10:14:27.445Z,12.20
2022-12-22T10:17:15.590Z,12.53
2022-12-22T10:19:44.051Z,12.27
2022-12-22T10:22:21.101Z,12.87
2022-12-22T10:24:49.535Z,11.60
2022-12-22T10:27:23.080Z,12.33
2022-12-22T10:29:54.264Z,12.10
2022-12-22T10:32:22.930Z,13.17
2022-12-22T10:35:03.583Z,11.50
2022-12-22T10:37:33.188Z,12.47
2022-12-22T10:40:47.147Z,11.87
2022-12-22T10:43:21.321Z,12.73
2022-12-22T10:45:50.528Z,12.17
2022-12-22T10:48:18.886Z,12.70
2022-12-22T10:50:48.014Z,14.90
2022-12-22T10:53:16.350Z,12.13
2022-12-22T10:55:44.626Z,12.63
2022-12-22T10:58:16.942Z,12.73
2022-12-22T11:00:46.796Z,12.87
2022-12-22T11:03:20.839Z,12.90
2022-12-22T11:05:53.287Z,13.07
2022-12-22T11:08:22.349Z,12.90
2022-12-22T11:10:53.941Z,14.13
2022-12-22T11:13:36.723Z,14.07
2022-12-22T11:16:11.975Z,13.97
2022-12-22T11:18:46.167Z,14.50
2022-12-22T11:21:23.780Z,15.43
2022-12-22T11:23:55.734Z,15.87
2022-12-22T11:26:28.463Z,17.60
2022-12-22T11:29:01.784Z,16.13
2022-12-22T11:31:40.467Z,14.07
2022-12-22T11:34:21.015Z,15.27
2022-12-22T11:36:58.327Z,14.57
2022-12-22T11:39:31.113Z,16.20
2022-12-22T11:42:03.614Z,15.43
2022-12-22T11:44:43.682Z,13.80
2022-12-22T11:47:20.295Z,14.30
2022-12-22T11:50:57.472Z,14.27
2022-12-22T11:52:57.834Z,13.73
2022-12-22T11:55:30.611Z,15.30
2022-12-22T11:58:12.572Z,14.67
2022-12-22T12:01:13.557Z,15.07
2022-12-22T12:03:42.550Z,12.17
2022-12-22T12:06:19.731Z,10.83
2022-12-22T12:08:56.226Z,13.23
2022-12-22T12:11:29.049Z,12.20
2022-12-22T12:14:02.682Z,12.57
2022-12-22T12:16:35.734Z,12.37
2022-12-22T12:19:13.760Z,11.63
2022-12-22T12:21:44.609Z,13.50
2022-12-22T12:24:38.223Z,10.77
2022-12-22T12:27:10.009Z,13.93
2022-12-22T12:29:40.201Z,13.23
2022-12-22T12:32:12.527Z,12.13
2022-12-22T12:34:43.804Z,11.53
2022-12-22T12:37:19.135Z,13.63
2022-12-22T12:39:56.958Z,8.00
2022-12-22T12:42:30.471Z,9.27
2022-12-22T12:44:59.490Z,12.77
2022-12-22T12:47:29.681Z,11.47
2022-12-22T12:50:18.990Z,12.20
2022-12-22T12:53:08.525Z,10.93
2022-12-22T12:55:52.897Z,10.57
2022-12-22T12:58:39.012Z,11.67
2022-12-22T13:01:08.243Z,11.53
2022-12-22T13:06:50.565Z,11.03
2022-12-22T13:12:25.049Z,10.27
2022-12-22T13:14:56.968Z,13.27
2022-12-22T13:17:35.544Z,11.07
2022-12-22T13:20:04.839Z,13.20
2022-12-22T13:22:34.561Z,11.53
2022-12-22T13:25:05.185Z,14.07
2022-12-22T13:27:33.562Z,12.10
2022-12-22T13:30:01.947Z,12.93
2022-12-22T13:32:32.261Z,13.50
2022-12-22T13:37:57.466Z,14.77
2022-12-22T13:40:28.091Z,11.97
2022-12-22T13:42:58.358Z,8.97
2022-12-22T13:45:31.238Z,13.17
2022-12-22T13:48:00.716Z,9.87
2022-12-22T13:50:32.699Z,10.23
2022-12-22T13:53:02.584Z,13.47
2022-12-22T13:55:33.507Z,13.20
2022-12-22T13:58:05.149Z,12.77
2022-12-22T14:00:33.794Z,11.27
2022-12-22T14:03:02.285Z,11.47
2022-12-22T14:05:34.297Z,10.53
2022-12-22T14:08:03.613Z,11.53
2022-12-22T14:10:41.829Z,13.43
2022-12-22T14:13:17.924Z,13.57
2022-12-22T14:15:49.353Z,15.10
2022-12-22T14:21:10.405Z,11.53
2022-12-22T14:23:40.685Z,12.93
2022-12-22T14:26:13.876Z,14.53
2022-12-22T14:28:50.165Z,16.73
2022-12-22T14:31:18.877Z,15.83
2022-12-22T14:33:53.417Z,20.70
2022-12-22T14:36:27.794Z,16.07
2022-12-22T14:38:59.078Z,14.03
2022-12-22T14:41:43.725Z,15.90
2022-12-22T14:44:16.223Z,18.33
2022-12-22T14:46:45.288Z,18.10
2022-12-22T14:49:18.053Z,15.70
2022-12-22T14:52:00.781Z,15.47
2022-12-22T14:54:30.095Z,17.87
2022-12-22T14:57:03.320Z,18.93
2022-12-22T14:59:32.463Z,22.77
2022-12-22T15:02:04.495Z,16.40
2022-12-22T15:04:33.136Z,18.07
2022-12-22T15:07:24.127Z,21.70
2022-12-22T15:10:18.307Z,18.07
2022-12-22T15:12:49.551Z,15.87
2022-12-22T15:15:20.297Z,17.50
2022-12-22T15:17:49.713Z,19.00
2022-12-22T15:20:39.322Z,16.40
2022-12-22T15:23:12.137Z,20.43
2022-12-22T15:25:40.828Z,17.17
2022-12-22T15:28:10.575Z,15.83
2022-12-22T15:30:41.663Z,16.70
2022-12-22T15:33:12.607Z,17.87
2022-12-22T15:35:41.892Z,19.27
2022-12-22T15:38:12.641Z,17.03
2022-12-22T15:40:40.961Z,18.80
2022-12-22T15:43:22.755Z,18.17
2022-12-22T15:45:59.369Z,22.77
2022-12-22T15:48:29.286Z,19.60
2022-12-22T15:50:58.062Z,18.73
2022-12-22T15:53:26.472Z,20.67
2022-12-22T15:55:55.802Z,20.90
2022-12-22T15:58:27.263Z,19.60
2022-12-22T16:00:55.545Z,22.40
2022-12-22T16:03:24.199Z,18.73
2022-12-22T16:05:54.510Z,19.13
2022-12-22T16:08:25.388Z,21.57
2022-12-22T16:10:53.964Z,19.73
2022-12-22T16:13:24.273Z,19.10
2022-12-22T16:15:54.142Z,19.60
2022-12-22T16:18:22.540Z,17.97
2022-12-22T16:20:51.523Z,18.90
2022-12-22T16:23:20.852Z,19.87
2022-12-22T16:25:49.593Z,20.33
2022-12-22T16:28:19.371Z,21.10
2022-12-22T16:30:47.825Z,21.77
2022-12-22T16:33:17.708Z,24.23
2022-12-22T16:35:49.812Z,18.20
2022-12-22T16:38:19.253Z,18.60
2022-12-22T16:40:49.119Z,18.27
2022-12-22T16:46:08.675Z,19.17
2022-12-22T16:48:41.072Z,18.77
2022-12-22T16:51:09.552Z,21.13
2022-12-22T16:53:38.909Z,20.07
2022-12-22T16:56:07.298Z,19.93
2022-12-22T16:58:35.554Z,23.00
2022-12-22T17:01:03.914Z,20.20
2022-12-22T17:03:32.462Z,20.87
2022-12-22T17:06:05.149Z,21.27
2022-12-22T17:08:35.103Z,19.77
2022-12-22T17:11:10.383Z,23.13
2022-12-22T17:13:39.583Z,20.50
2022-12-22T17:16:08.132Z,23.10
2022-12-22T17:18:37.040Z,22.37
2022-12-22T17:21:06.792Z,21.63
2022-12-22T17:23:36.753Z,19.77
2022-12-22T17:26:07.329Z,22.70
2022-12-22T17:28:35.783Z,24.63
2022-12-22T17:31:04.377Z,22.40
2022-12-22T17:33:33.067Z,21.30
2022-12-22T17:36:02.818Z,21.77
2022-12-22T17:38:32.827Z,22.10
2022-12-22T17:41:03.444Z,21.20
2022-12-22T17:43:31.909Z,24.23
2022-12-22T17:46:00.266Z,26.63
2022-12-22T17:48:28.988Z,27.20
2022-12-22T17:50:57.340Z,24.37
2022-12-22T17:53:25.792Z,24.47
2022-12-22T17:56:10.885Z,30.00
2022-12-22T17:58:39.912Z,27.07
2022-12-22T18:01:11.418Z,28.83
2022-12-22T18:03:39.787Z,26.80
2022-12-22T18:22:44.283Z,24.50
2022-12-22T18:28:58.515Z,26.87
2022-12-22T18:45:43.318Z,35.50
2022-12-22T19:02:07.932Z,25.73
2022-12-22T19:08:20.623Z,26.03
2022-12-22T19:31:07.332Z,27.73
2022-12-22T19:49:58.964Z,22.13
2022-12-22T21:13:10.949Z,16.70
2022-12-22T21:15:39.988Z,17.73
2022-12-22T21:18:08.867Z,17.57
2022-12-22T21:20:37.101Z,17.77
2022-12-22T21:23:05.668Z,17.17
2022-12-22T21:25:33.947Z,17.53
2022-12-22T21:28:02.949Z,15.93
2022-12-22T21:30:32.707Z,16.57
2022-12-22T21:33:01.583Z,17.47
2022-12-22T21:35:34.592Z,17.70
2022-12-22T21:38:03.400Z,16.50
2022-12-22T21:40:32.913Z,18.70
2022-12-22T21:43:01.239Z,16.37
2022-12-22T21:45:31.513Z,16.40
2022-12-22T21:48:02.145Z,15.83
2022-12-22T21:50:31.554Z,16.57
2022-12-22T21:52:59.846Z,15.10
2022-12-22T21:55:29.326Z,15.13
2022-12-22T21:57:57.886Z,18.20
2022-12-22T22:00:26.901Z,15.93
2022-12-22T22:02:55.626Z,15.27
2022-12-22T22:05:27.084Z,13.83
2022-12-22T22:07:55.316Z,12.13
2022-12-22T22:10:24.770Z,12.87
2022-12-22T22:12:53.040Z,13.97
2022-12-22T22:15:21.782Z,10.97
2022-12-22T22:17:50.131Z,11.60
2022-12-22T22:20:19.069Z,13.27
2022-12-22T22:22:49.197Z,11.37
2022-12-22T22:25:18.501Z,12.57
2022-12-22T22:27:48.132Z,10.00
2022-12-22T22:30:17.685Z,17.70
2022-12-22T22:32:46.336Z,10.23
2022-12-22T22:35:14.605Z,13.60
2022-12-22T22:37:44.440Z,15.70
2022-12-22T22:40:15.336Z,14.73
2022-12-22T22:42:43.617Z,14.37
2022-12-22T22:45:12.781Z,12.70
2022-12-22T22:47:41.057Z,13.43
2022-12-22T22:50:09.760Z,11.47
2022-12-22T22:52:38.580Z,14.10
2022-12-22T22:55:08.525Z,14.30
2022-12-22T22:57:38.313Z,15.70
2022-12-22T23:00:07.273Z,15.10
2022-12-22T23:02:35.780Z,13.37
2022-12-22T23:05:04.353Z,14.10
2022-12-22T23:07:32.669Z,13.33
2022-12-22T23:10:01.188Z,14.97
2022-12-22T23:12:29.536Z,14.07
2022-12-22T23:15:00.726Z,14.83
2022-12-22T23:17:29.215Z,15.53
2022-12-22T23:19:57.722Z,10.17
2022-12-22T23:22:26.006Z,13.40
2022-12-22T23:24:54.280Z,12.70
2022-12-22T23:27:22.907Z,13.67
2022-12-22T23:29:51.209Z,15.60
2022-12-22T23:32:20.921Z,14.00
2022-12-22T23:34:49.527Z,12.63
2022-12-22T23:37:19.664Z,12.20
2022-12-22T23:39:48.267Z,12.23
2022-12-22T23:42:16.640Z,14.57
2022-12-22T23:44:44.946Z,15.27
2022-12-22T23:47:13.291Z,14.87
2022-12-22T23:49:43.071Z,10.70
2022-12-22T23:52:11.352Z,15.50
2022-12-22T23:54:39.667Z,15.57
2022-12-22T23:57:07.942Z,16.00
2022-12-22T23:59:36.242Z,14.47
